createdAt,value
2023-03-02T00:00:01.840Z,-2.04
2023-03-02T00:02:29.103Z,-2.13
2023-03-02T00:04:55.450Z,-2.12
2023-03-02T00:07:21.742Z,-2.16
2023-03-02T00:09:48.057Z,-2.03
2023-03-02T00:12:14.398Z,-1.96
2023-03-02T00:14:40.825Z,-1.97
2023-03-02T00:17:08.126Z,-2.02
2023-03-02T00:19:34.594Z,-2.13
2023-03-02T00:22:00.968Z,-2.17
2023-03-02T00:24:27.293Z,-2.24
2023-03-02T00:26:53.653Z,-2.47
2023-03-02T00:29:19.989Z,-2.58
2023-03-02T00:31:46.453Z,-2.57
2023-03-02T00:34:12.794Z,-2.47
2023-03-02T00:36:39.146Z,-2.42
2023-03-02T00:39:05.726Z,-2.60
2023-03-02T00:41:32.059Z,-2.49
2023-03-02T00:43:58.356Z,-2.48
2023-03-02T00:46:24.704Z,-2.53
2023-03-02T00:48:51.059Z,-2.44
2023-03-02T00:51:17.817Z,-2.40
2023-03-02T00:53:44.148Z,-2.37
2023-03-02T00:56:10.465Z,-2.52
2023-03-02T00:58:36.815Z,-2.47
2023-03-02T01:01:03.150Z,-2.47
2023-03-02T01:03:29.566Z,-2.49
2023-03-02T01:05:56.441Z,-2.53
2023-03-02T01:08:22.987Z,-2.53
2023-03-02T01:10:49.345Z,-2.64
2023-03-02T01:13:15.729Z,-2.61
2023-03-02T01:15:42.024Z,-2.66
2023-03-02T01:18:08.321Z,-2.67
2023-03-02T01:20:34.639Z,-2.69
2023-03-02T01:23:00.991Z,-2.69
2023-03-02T01:25:27.299Z,-2.79
2023-03-02T01:27:53.607Z,-2.88
2023-03-02T01:30:19.927Z,-2.86
2023-03-02T01:32:46.285Z,-2.86
2023-03-02T01:35:12.634Z,-2.93
2023-03-02T01:37:38.929Z,-2.90
2023-03-02T01:40:06.853Z,-2.90
2023-03-02T01:42:33.182Z,-3.08
2023-03-02T01:44:59.594Z,-3.02
2023-03-02T01:47:25.929Z,-2.94
2023-03-02T01:49:52.313Z,-2.97
2023-03-02T01:52:18.644Z,-2.97
2023-03-02T01:54:45.006Z,-3.06
2023-03-02T01:57:11.399Z,-3.07
2023-03-02T01:59:37.710Z,-3.09
2023-03-02T02:02:04.046Z,-3.10
2023-03-02T02:04:30.378Z,-3.05
2023-03-02T02:06:56.690Z,-3.16
2023-03-02T02:09:23.025Z,-3.20
2023-03-02T02:11:49.375Z,-3.19
2023-03-02T02:14:15.767Z,-3.13
2023-03-02T02:16:42.099Z,-3.12
2023-03-02T02:19:08.499Z,-3.13
2023-03-02T02:21:34.837Z,-3.08
2023-03-02T02:24:01.160Z,-3.11
2023-03-02T02:26:27.525Z,-3.11
2023-03-02T02:28:57.738Z,-3.16
2023-03-02T02:31:26.797Z,-3.05
2023-03-02T02:33:53.291Z,-3.07
2023-03-02T02:36:19.676Z,-3.03
2023-03-02T02:38:47.990Z,-2.99
2023-03-02T02:41:14.358Z,-2.92
2023-03-02T02:43:40.708Z,-2.97
2023-03-02T02:46:07.090Z,-2.99
2023-03-02T02:48:33.481Z,-3.04
2023-03-02T02:51:03.397Z,-3.10
2023-03-02T02:53:29.778Z,-3.22
2023-03-02T02:55:56.082Z,-3.28
2023-03-02T02:58:22.411Z,-3.32
2023-03-02T03:00:48.761Z,-3.28
2023-03-02T03:03:29.360Z,-3.31
2023-03-02T03:05:55.718Z,-3.35
2023-03-02T03:08:22.018Z,-3.37
2023-03-02T03:10:48.383Z,-3.40
2023-03-02T03:13:14.749Z,-3.41
2023-03-02T03:15:41.151Z,-3.45
2023-03-02T03:18:07.457Z,-3.51
2023-03-02T03:20:33.755Z,-3.45
2023-03-02T03:23:00.892Z,-3.47
2023-03-02T03:25:27.235Z,-3.51
2023-03-02T03:27:53.560Z,-3.49
2023-03-02T03:30:19.870Z,-3.52
2023-03-02T03:32:46.185Z,-3.52
2023-03-02T03:35:12.922Z,-3.55
2023-03-02T03:37:39.253Z,-3.59
2023-03-02T03:40:06.213Z,-3.55
2023-03-02T03:42:32.710Z,-3.54
2023-03-02T03:44:59.030Z,-3.53
2023-03-02T03:47:25.336Z,-3.57
2023-03-02T03:49:51.662Z,-3.52
2023-03-02T03:52:17.986Z,-3.51
2023-03-02T03:54:44.305Z,-3.47
2023-03-02T03:57:12.227Z,-3.44
2023-03-02T03:59:38.562Z,-3.43
2023-03-02T04:02:04.888Z,-3.40
2023-03-02T04:04:31.214Z,-3.51
2023-03-02T04:06:57.533Z,-3.54
2023-03-02T04:09:23.912Z,-3.64
2023-03-02T04:11:50.238Z,-3.77
2023-03-02T04:14:16.551Z,-3.83
2023-03-02T04:16:42.960Z,-3.72
2023-03-02T04:19:09.724Z,-3.74
2023-03-02T04:21:36.070Z,-3.66
2023-03-02T04:24:02.364Z,-3.67
2023-03-02T04:26:28.702Z,-3.81
2023-03-02T04:28:55.006Z,-3.78
2023-03-02T04:31:21.398Z,-3.80
2023-03-02T04:33:47.723Z,-3.81
2023-03-02T04:36:14.067Z,-3.80
2023-03-02T04:38:40.410Z,-3.81
2023-03-02T04:41:06.736Z,-3.82
2023-03-02T04:43:33.053Z,-3.93
2023-03-02T04:45:59.385Z,-3.99
2023-03-02T04:48:25.859Z,-3.93
2023-03-02T04:50:52.205Z,-3.92
2023-03-02T04:53:18.544Z,-4.03
2023-03-02T04:55:44.914Z,-4.08
2023-03-02T04:58:11.235Z,-4.11
2023-03-02T05:00:37.749Z,-4.08
2023-03-02T05:03:04.137Z,-4.13
2023-03-02T05:05:30.451Z,-4.13
2023-03-02T05:07:58.586Z,-4.05
2023-03-02T05:10:25.121Z,-4.05
2023-03-02T05:12:54.887Z,-4.18
2023-03-02T05:15:21.234Z,-4.23
2023-03-02T05:17:47.541Z,-4.18
2023-03-02T05:20:13.885Z,-4.15
2023-03-02T05:22:40.202Z,-4.15
2023-03-02T05:25:06.562Z,-4.17
2023-03-02T05:27:32.886Z,-4.23
2023-03-02T05:29:59.250Z,-4.24
2023-03-02T05:32:25.582Z,-4.28
2023-03-02T05:34:51.966Z,-4.27
2023-03-02T05:37:18.540Z,-4.20
2023-03-02T05:39:44.920Z,-4.16
2023-03-02T05:42:11.224Z,-4.20
2023-03-02T05:44:37.525Z,-4.14
2023-03-02T05:47:03.887Z,-4.17
2023-03-02T05:49:30.186Z,-4.24
2023-03-02T05:51:56.598Z,-4.23
2023-03-02T05:54:22.910Z,-4.13
2023-03-02T05:56:50.340Z,-4.18
2023-03-02T05:59:16.751Z,-4.18
2023-03-02T06:01:43.185Z,-4.16
2023-03-02T06:04:09.531Z,-4.20
2023-03-02T06:06:36.187Z,-4.18
2023-03-02T06:09:02.673Z,-4.20
2023-03-02T06:11:30.328Z,-4.16
2023-03-02T06:13:56.645Z,-4.07
2023-03-02T06:16:23.013Z,-4.07
2023-03-02T06:18:49.374Z,-4.09
2023-03-02T06:21:15.738Z,-4.01
2023-03-02T06:23:42.032Z,-3.90
2023-03-02T06:26:08.378Z,-3.88
2023-03-02T06:28:49.822Z,-3.82
2023-03-02T06:31:18.184Z,-3.75
2023-03-02T06:33:44.524Z,-3.68
2023-03-02T06:36:12.733Z,-3.64
2023-03-02T06:38:39.278Z,-3.54
2023-03-02T06:41:05.597Z,-3.44
2023-03-02T06:43:31.896Z,-3.43
2023-03-02T06:46:00.900Z,-3.43
2023-03-02T06:48:27.337Z,-3.39
2023-03-02T06:50:53.651Z,-3.14
2023-03-02T06:53:22.905Z,-3.32
2023-03-02T06:55:49.269Z,-3.42
2023-03-02T06:58:15.633Z,-3.13
2023-03-02T07:00:41.936Z,-3.20
2023-03-02T07:03:08.271Z,-2.94
2023-03-02T07:05:35.933Z,-2.86
2023-03-02T07:08:02.225Z,-2.66
2023-03-02T07:10:28.970Z,-2.43
2023-03-02T07:12:55.321Z,-2.64
2023-03-02T07:15:22.180Z,-2.38
2023-03-02T07:17:48.471Z,-2.29
2023-03-02T07:20:14.810Z,-1.96
2023-03-02T07:22:41.173Z,-1.66
2023-03-02T07:25:07.481Z,-1.45
2023-03-02T07:27:33.869Z,-1.26
2023-03-02T07:30:00.200Z,-1.07
2023-03-02T07:32:26.572Z,-1.09
2023-03-02T07:34:52.991Z,-0.83
2023-03-02T07:37:19.279Z,-0.57
2023-03-02T07:39:45.581Z,-0.97
2023-03-02T07:42:11.921Z,-0.58
2023-03-02T07:44:38.244Z,-0.21
2023-03-02T07:47:04.607Z,0.16
2023-03-02T07:49:31.052Z,-0.16
2023-03-02T07:51:57.368Z,-0.01
2023-03-02T07:54:26.573Z,0.16
2023-03-02T07:56:52.891Z,0.24
2023-03-02T07:59:19.222Z,0.36
2023-03-02T08:01:45.624Z,0.94
2023-03-02T08:04:11.948Z,0.93
2023-03-02T08:06:38.258Z,0.32
2023-03-02T08:09:04.626Z,0.96
2023-03-02T08:11:31.270Z,1.18
2023-03-02T08:13:57.877Z,1.51
2023-03-02T08:16:26.481Z,1.61
2023-03-02T08:18:52.883Z,0.95
2023-03-02T08:21:19.347Z,0.93
2023-03-02T08:23:45.782Z,1.19
2023-03-02T08:26:14.248Z,1.04
2023-03-02T08:28:42.093Z,0.87
2023-03-02T08:31:08.438Z,1.15
2023-03-02T08:33:34.939Z,1.64
2023-03-02T08:36:01.327Z,1.74
2023-03-02T08:38:27.733Z,2.08
2023-03-02T08:40:54.063Z,1.81
2023-03-02T08:43:20.477Z,2.54
2023-03-02T08:45:46.833Z,2.67
2023-03-02T08:48:13.170Z,2.66
2023-03-02T08:50:39.493Z,2.56
2023-03-02T08:53:05.796Z,2.65
2023-03-02T08:55:32.151Z,2.14
2023-03-02T08:57:58.470Z,2.49
2023-03-02T09:00:24.775Z,2.98
2023-03-02T09:02:51.089Z,3.31
2023-03-02T09:05:17.413Z,3.51
2023-03-02T09:07:43.738Z,3.11
2023-03-02T09:10:10.056Z,2.93
2023-03-02T09:12:36.387Z,3.64
2023-03-02T09:15:02.785Z,3.39
2023-03-02T09:17:29.152Z,2.56
2023-03-02T09:19:55.517Z,3.16
2023-03-02T09:22:21.817Z,2.82
2023-03-02T09:24:48.132Z,3.46
2023-03-02T09:27:14.440Z,4.08
2023-03-02T09:29:40.828Z,4.15
2023-03-02T09:32:07.279Z,3.57
2023-03-02T09:34:33.757Z,4.02
2023-03-02T09:37:00.112Z,4.49
2023-03-02T09:39:26.461Z,4.78
2023-03-02T09:41:52.762Z,4.34
2023-03-02T09:44:19.110Z,4.82
2023-03-02T09:46:45.454Z,5.25
2023-03-02T09:49:11.809Z,5.13
2023-03-02T09:51:39.349Z,5.55
2023-03-02T09:54:05.726Z,5.29
2023-03-02T09:56:32.382Z,5.60
2023-03-02T09:58:58.916Z,5.54
2023-03-02T10:01:25.243Z,5.13
2023-03-02T10:03:51.724Z,5.47
2023-03-02T10:06:18.148Z,5.95
2023-03-02T10:08:44.615Z,6.10
2023-03-02T10:11:10.950Z,5.27
2023-03-02T10:13:37.321Z,4.70
2023-03-02T10:16:03.770Z,4.74
2023-03-02T10:18:30.172Z,4.93
2023-03-02T10:20:56.577Z,5.82
2023-03-02T10:23:22.963Z,4.93
2023-03-02T10:25:49.271Z,5.40
2023-03-02T10:28:15.597Z,5.19
2023-03-02T10:30:42.063Z,5.57
2023-03-02T10:33:08.400Z,5.44
2023-03-02T10:35:34.767Z,6.16
2023-03-02T10:38:01.133Z,5.40
2023-03-02T10:40:27.462Z,6.05
2023-03-02T10:42:53.757Z,6.02
2023-03-02T10:45:20.048Z,6.38
2023-03-02T10:47:46.367Z,6.84
2023-03-02T10:50:12.689Z,6.79
2023-03-02T10:52:41.051Z,6.78
2023-03-02T10:55:08.760Z,6.85
2023-03-02T10:57:35.072Z,6.84
2023-03-02T11:00:01.511Z,6.87
2023-03-02T11:02:28.359Z,7.22
2023-03-02T11:04:57.355Z,7.24
2023-03-02T11:07:23.989Z,6.91
2023-03-02T11:09:50.292Z,6.87
2023-03-02T11:12:16.831Z,7.36
2023-03-02T11:14:43.470Z,7.93
2023-03-02T11:17:09.791Z,8.05
2023-03-02T11:19:36.371Z,8.40
2023-03-02T11:22:02.695Z,8.58
2023-03-02T11:24:28.997Z,8.38
2023-03-02T11:26:55.331Z,8.03
2023-03-02T11:29:22.754Z,8.34
2023-03-02T11:31:49.307Z,8.81
2023-03-02T11:34:17.951Z,9.00
2023-03-02T11:36:44.774Z,9.22
2023-03-02T11:39:11.111Z,9.18
2023-03-02T11:41:37.456Z,9.01
2023-03-02T11:44:03.825Z,8.71
2023-03-02T11:46:33.778Z,8.61
2023-03-02T11:49:00.245Z,9.01
2023-03-02T11:51:26.585Z,9.23
2023-03-02T11:53:53.057Z,9.23
2023-03-02T11:56:19.479Z,8.17
2023-03-02T11:58:45.795Z,8.31
2023-03-02T12:01:12.124Z,9.00
2023-03-02T12:03:38.595Z,9.07
2023-03-02T12:06:06.696Z,9.03
2023-03-02T12:08:33.533Z,8.94
2023-03-02T12:10:59.840Z,9.19
2023-03-02T12:13:26.254Z,9.17
2023-03-02T12:15:52.630Z,9.22
2023-03-02T12:18:18.993Z,8.97
2023-03-02T12:20:45.355Z,8.74
2023-03-02T12:23:11.739Z,8.54
2023-03-02T12:25:38.083Z,8.68
2023-03-02T12:28:04.516Z,8.80
2023-03-02T12:30:31.724Z,8.96
2023-03-02T12:32:58.033Z,9.04
2023-03-02T12:35:24.394Z,9.06
2023-03-02T12:37:51.934Z,8.97
2023-03-02T12:40:18.260Z,8.64
2023-03-02T12:42:44.596Z,8.71
2023-03-02T12:45:10.927Z,8.76
2023-03-02T12:47:37.306Z,8.60
2023-03-02T12:50:03.644Z,8.77
2023-03-02T12:52:30.065Z,8.70
2023-03-02T12:54:56.406Z,8.61
2023-03-02T12:57:22.720Z,8.54
2023-03-02T12:59:49.095Z,8.69
2023-03-02T13:02:15.476Z,8.72
2023-03-02T13:04:41.807Z,8.71
2023-03-02T13:07:08.188Z,8.41
2023-03-02T13:09:34.967Z,8.44
2023-03-02T13:12:02.237Z,8.51
2023-03-02T13:14:28.569Z,8.43
2023-03-02T13:16:54.964Z,8.39
2023-03-02T13:19:21.306Z,8.45
2023-03-02T13:21:47.672Z,8.44
2023-03-02T13:24:13.968Z,8.58
2023-03-02T13:26:40.508Z,8.43
2023-03-02T13:29:06.968Z,8.63
2023-03-02T13:31:33.365Z,8.51
2023-03-02T13:33:59.781Z,8.31
2023-03-02T13:36:26.105Z,8.37
2023-03-02T13:38:52.418Z,8.52
2023-03-02T13:41:18.795Z,8.54
2023-03-02T13:43:45.140Z,8.34
2023-03-02T13:46:11.534Z,8.51
2023-03-02T13:48:37.864Z,8.54
2023-03-02T13:51:04.446Z,8.50
2023-03-02T13:53:30.808Z,8.64
2023-03-02T13:55:57.105Z,8.59
2023-03-02T13:58:23.495Z,8.35
2023-03-02T14:00:49.904Z,8.33
2023-03-02T14:03:16.236Z,8.35
2023-03-02T14:05:42.563Z,8.46
2023-03-02T14:08:08.999Z,8.54
2023-03-02T14:10:35.360Z,8.41
2023-03-02T14:13:01.729Z,8.41
2023-03-02T14:15:28.095Z,8.46
2023-03-02T14:17:54.484Z,8.32
2023-03-02T14:20:20.833Z,8.40
2023-03-02T14:22:47.195Z,8.49
2023-03-02T14:25:13.566Z,8.31
2023-03-02T14:27:39.962Z,8.24
2023-03-02T14:30:06.283Z,8.30
2023-03-02T14:32:32.713Z,8.34
2023-03-02T14:34:59.136Z,8.26
2023-03-02T14:37:25.450Z,8.18
2023-03-02T14:39:54.219Z,8.20
2023-03-02T14:42:21.533Z,8.32
2023-03-02T14:44:47.899Z,8.28
2023-03-02T14:47:16.618Z,8.32
2023-03-02T14:49:42.947Z,8.24
2023-03-02T14:52:09.348Z,8.26
2023-03-02T14:54:35.662Z,8.30
2023-03-02T14:57:02.107Z,8.18
2023-03-02T14:59:28.444Z,8.18
2023-03-02T15:01:57.546Z,8.16
2023-03-02T15:04:24.535Z,8.01
2023-03-02T15:06:50.890Z,8.08
2023-03-02T15:09:17.579Z,8.08
2023-03-02T15:11:43.921Z,8.14
2023-03-02T15:14:10.265Z,8.06
2023-03-02T15:16:36.614Z,8.04
2023-03-02T15:19:03.484Z,8.06
2023-03-02T15:21:29.896Z,8.02
2023-03-02T15:23:56.305Z,7.91
2023-03-02T15:26:22.739Z,8.04
2023-03-02T15:28:49.073Z,7.96
2023-03-02T15:31:15.472Z,8.03
2023-03-02T15:33:41.945Z,7.98
2023-03-02T15:36:08.331Z,7.99
2023-03-02T15:38:35.856Z,7.94
2023-03-02T15:41:02.162Z,7.91
2023-03-02T15:43:28.502Z,7.96
2023-03-02T15:45:54.845Z,7.87
2023-03-02T15:48:21.165Z,7.91
2023-03-02T15:50:47.485Z,7.87
2023-03-02T15:53:13.804Z,7.80
2023-03-02T15:55:40.123Z,7.72
2023-03-02T15:58:08.295Z,7.72
2023-03-02T16:00:37.848Z,7.65
2023-03-02T16:03:04.919Z,7.63
2023-03-02T16:05:34.342Z,7.64
2023-03-02T16:08:00.735Z,7.50
2023-03-02T16:10:30.177Z,7.35
2023-03-02T16:12:56.500Z,7.36
2023-03-02T16:15:22.812Z,7.32
2023-03-02T16:17:49.201Z,7.30
2023-03-02T16:20:15.523Z,7.22
2023-03-02T16:22:41.885Z,7.19
2023-03-02T16:25:08.197Z,7.14
2023-03-02T16:27:34.504Z,7.16
2023-03-02T16:30:00.825Z,7.05
2023-03-02T16:32:27.194Z,6.93
2023-03-02T16:34:53.547Z,6.95
2023-03-02T16:37:19.884Z,6.88
2023-03-02T16:39:58.384Z,6.85
2023-03-02T16:42:24.797Z,6.87
2023-03-02T16:44:51.216Z,6.67
2023-03-02T16:47:17.583Z,6.51
2023-03-02T16:49:43.921Z,6.32
2023-03-02T16:52:10.341Z,6.07
2023-03-02T16:54:36.649Z,5.94
2023-03-02T16:57:04.905Z,5.78
2023-03-02T16:59:31.473Z,5.63
2023-03-02T17:02:00.891Z,5.49
2023-03-02T17:04:27.283Z,5.33
2023-03-02T17:07:01.440Z,5.18
2023-03-02T17:09:28.395Z,5.01
2023-03-02T17:11:54.784Z,4.89
2023-03-02T17:14:21.173Z,4.73
2023-03-02T17:16:47.539Z,4.68
2023-03-02T17:19:13.866Z,4.54
2023-03-02T17:21:41.897Z,4.51
2023-03-02T17:24:08.234Z,4.51
2023-03-02T17:26:34.602Z,4.48
2023-03-02T17:29:00.961Z,4.39
2023-03-02T17:31:27.263Z,4.29
2023-03-02T17:33:53.623Z,4.25
2023-03-02T17:36:19.941Z,4.12
2023-03-02T17:38:46.338Z,3.80
2023-03-02T17:41:12.716Z,3.79
2023-03-02T17:43:39.069Z,3.76
2023-03-02T17:46:05.765Z,3.67
2023-03-02T17:48:32.146Z,3.50
2023-03-02T17:50:58.481Z,3.55
2023-03-02T17:53:24.790Z,3.45
2023-03-02T17:55:51.121Z,3.39
2023-03-02T17:58:18.886Z,3.33
2023-03-02T18:00:45.222Z,3.15
2023-03-02T18:03:11.579Z,3.13
2023-03-02T18:05:39.849Z,3.20
2023-03-02T18:08:06.147Z,3.14
2023-03-02T18:10:32.441Z,3.07
2023-03-02T18:12:58.750Z,2.98
2023-03-02T18:15:27.234Z,2.99
2023-03-02T18:17:53.565Z,2.80
2023-03-02T18:20:19.899Z,2.79
2023-03-02T18:22:46.211Z,2.63
2023-03-02T18:25:12.535Z,2.56
2023-03-02T18:27:38.903Z,2.61
2023-03-02T18:30:05.221Z,2.55
2023-03-02T18:32:31.605Z,2.44
2023-03-02T18:34:57.930Z,2.36
2023-03-02T18:37:24.270Z,2.37
2023-03-02T18:39:50.624Z,2.28
2023-03-02T18:42:16.928Z,2.28
2023-03-02T18:44:43.286Z,2.20
2023-03-02T18:47:09.631Z,2.20
2023-03-02T18:49:38.471Z,2.10
2023-03-02T18:52:06.959Z,2.03
2023-03-02T18:54:33.281Z,2.05
2023-03-02T18:57:00.101Z,1.99
2023-03-02T18:59:26.450Z,1.96
2023-03-02T19:01:52.762Z,1.87
2023-03-02T19:04:19.776Z,1.76
2023-03-02T19:06:46.113Z,1.71
2023-03-02T19:09:12.458Z,1.61
2023-03-02T19:11:38.841Z,1.63
2023-03-02T19:14:05.151Z,1.61
2023-03-02T19:16:31.531Z,0.87
2023-03-02T19:18:57.926Z,1.26
2023-03-02T19:21:24.233Z,1.40
2023-03-02T19:23:50.599Z,1.52
2023-03-02T19:26:16.961Z,1.57
2023-03-02T19:28:43.319Z,1.39
2023-03-02T19:31:11.329Z,1.38
2023-03-02T19:33:37.797Z,1.21
2023-03-02T19:36:04.183Z,1.30
2023-03-02T19:38:30.538Z,1.22
2023-03-02T19:40:57.264Z,1.41
2023-03-02T19:43:23.583Z,1.47
2023-03-02T19:45:49.913Z,1.54
2023-03-02T19:48:16.256Z,1.56
2023-03-02T19:50:43.446Z,1.55
2023-03-02T19:53:10.601Z,1.54
2023-03-02T19:55:36.983Z,1.50
2023-03-02T19:58:05.355Z,1.49
2023-03-02T20:00:31.713Z,1.40
2023-03-02T20:02:58.354Z,1.37
2023-03-02T20:05:26.048Z,1.28
2023-03-02T20:07:52.363Z,1.30
2023-03-02T20:10:18.664Z,1.14
2023-03-02T20:12:44.966Z,1.12
2023-03-02T20:15:11.329Z,1.08
2023-03-02T20:17:37.628Z,1.07
2023-03-02T20:20:05.740Z,0.76
2023-03-02T20:22:32.046Z,0.92
2023-03-02T20:24:58.499Z,0.84
2023-03-02T20:27:24.841Z,0.87
2023-03-02T20:29:51.146Z,0.87
2023-03-02T20:32:17.559Z,0.71
2023-03-02T20:34:43.927Z,0.80
2023-03-02T20:37:10.257Z,0.82
2023-03-02T20:39:36.662Z,0.80
2023-03-02T20:42:03.076Z,0.76
2023-03-02T20:44:32.594Z,0.66
2023-03-02T20:46:59.063Z,0.69
2023-03-02T20:49:25.406Z,0.70
2023-03-02T20:51:54.633Z,0.63
2023-03-02T20:54:20.945Z,0.51
2023-03-02T20:56:47.299Z,0.01
2023-03-02T20:59:13.598Z,0.13
2023-03-02T21:01:39.944Z,0.29
2023-03-02T21:04:06.327Z,0.23
2023-03-02T21:06:34.578Z,0.21
2023-03-02T21:09:00.883Z,0.33
2023-03-02T21:11:27.191Z,0.08
2023-03-02T21:13:55.376Z,0.07
2023-03-02T21:16:21.755Z,0.56
2023-03-02T21:18:48.069Z,0.69
2023-03-02T21:21:14.361Z,0.70
2023-03-02T21:23:41.934Z,0.73
2023-03-02T21:26:09.268Z,0.73
2023-03-02T21:28:35.632Z,0.67
2023-03-02T21:31:01.976Z,0.53
2023-03-02T21:33:28.328Z,0.51
2023-03-02T21:35:54.629Z,0.44
2023-03-02T21:38:20.947Z,0.41
2023-03-02T21:40:47.321Z,0.42
2023-03-02T21:43:13.648Z,0.34
2023-03-02T21:45:39.950Z,0.20
2023-03-02T21:48:06.313Z,0.12
2023-03-02T21:50:32.803Z,0.11
2023-03-02T21:52:59.470Z,0.23
2023-03-02T21:55:25.797Z,0.43
2023-03-02T21:57:52.113Z,0.33
2023-03-02T22:00:18.541Z,0.28
2023-03-02T22:02:44.894Z,0.21
2023-03-02T22:05:11.180Z,0.02
2023-03-02T22:07:37.495Z,-0.06
2023-03-02T22:10:03.870Z,0.11
2023-03-02T22:12:30.304Z,0.10
2023-03-02T22:14:56.794Z,0.09
2023-03-02T22:17:24.634Z,-0.07
2023-03-02T22:19:51.165Z,-0.10
2023-03-02T22:22:18.007Z,-0.19
2023-03-02T22:24:44.317Z,-0.32
2023-03-02T22:27:10.637Z,-0.27
2023-03-02T22:29:36.936Z,-0.31
2023-03-02T22:32:03.347Z,-0.32
2023-03-02T22:34:29.709Z,-0.36
2023-03-02T22:36:56.010Z,-0.37
2023-03-02T22:39:22.338Z,-0.36
2023-03-02T22:41:48.652Z,-0.45
2023-03-02T22:44:15.289Z,-0.44
2023-03-02T22:46:41.733Z,-0.54
2023-03-02T22:49:08.049Z,-0.61
2023-03-02T22:51:34.360Z,-0.61
2023-03-02T22:54:00.668Z,-0.60
2023-03-02T22:56:27.384Z,-0.58
2023-03-02T22:58:53.715Z,-0.58
2023-03-02T23:01:21.088Z,-0.56
2023-03-02T23:03:47.522Z,-0.67
2023-03-02T23:06:13.888Z,-0.63
2023-03-02T23:08:40.462Z,-0.76
2023-03-02T23:11:06.855Z,-0.72
2023-03-02T23:13:33.153Z,-0.85
2023-03-02T23:15:59.499Z,-0.86
2023-03-02T23:18:25.834Z,-0.84
2023-03-02T23:20:52.154Z,-0.82
2023-03-02T23:23:18.512Z,-0.81
2023-03-02T23:25:44.842Z,-0.70
2023-03-02T23:28:11.233Z,-0.64
2023-03-02T23:30:37.568Z,-0.58
2023-03-02T23:33:03.873Z,-0.63
2023-03-02T23:35:30.449Z,-0.54
2023-03-02T23:37:56.802Z,-0.54
2023-03-02T23:40:23.203Z,-0.55
2023-03-02T23:42:49.535Z,-0.57
2023-03-02T23:45:16.008Z,-0.55
2023-03-02T23:47:42.443Z,-0.56
2023-03-02T23:50:08.994Z,-0.49
2023-03-02T23:52:35.293Z,-0.40
2023-03-02T23:55:01.603Z,-0.44
2023-03-02T23:57:27.917Z,-0.34
2023-03-02T23:59:54.270Z,-0.39
